South Chaplin, Connecticut
Current Conditions -  °F | °C
As of 4:52 PM on Sunday 23 Nov 2014 (Local Time) from KIJD Reporting Station
Clear Clear  
Wind Chill: 52°   Ceiling: Unl
Heat Index: 52°   Visibility: 10mi
Dew Point: 28°   Wind: 6mph
Humidity: 40%   Direction: 170°S
Pressure: 30.13"   Gusts: NA
Location:  41.7601°N, 72.123°W
Report Text: KIJD 232152Z AUTO 17005KT 10SM CLR 11/M02 A3013 RMK AO2 SLP205 T01111022
Loading
Personal Weather Stations






























Interactive Weather Map New forecast layout! Learn more

10-Day Weather Forecast

Advertisements
Track Severe Weather on mobile